x

Isle Of Shoals, Nh (iosn3) Weather Station

8:00pm - Wed 28th Jun 2017 All times are EDT. -4 hours from GMT.

  • Wind
    10mph, 10mph gusts
  • Air Temp 71°f
  • Sea Pressure 1016.6mb
  • Isle Of Shoals, Nh
  • Isle Of Shoals, Nh

More Historic Weather Station data

Upgrade to MSW Pro to gain access to the past 30 days of data for over 8000 Wavebouys and Weather Stations around the globe.

Join Pro

Comparision Forecast

View Surf forecast
   
Wed 06/28 8:00pm 10 10 mph 1016.6mb 71f
7:00pm 8 9 mph 1016.2mb 72f
6:00pm 15 15 mph 1015.6mb 73f
5:00pm 15 16 mph 1015.2mb 70f
4:00pm 14 14 mph 1015.8mb 69f
3:00pm 16 17 mph 1015.8mb 69f
2:00pm 14 15 mph 1015.7mb 68f
1:00pm 14 15 mph 1015.5mb 67f
12:00pm 16 17 mph 1015.3mb 66f
11:00am 14 15 mph 1015.1mb 63f
10:00am 11 13 mph 1015.2mb 61f
9:00am 16 18 mph 1015.2mb 59f
8:00am 13 13 mph 1015.2mb 56f
7:00am 14 15 mph 1015.3mb 55f
6:00am 15 16 mph 1014.9mb 54f
5:00am 14 16 mph 1014.5mb 55f
4:00am 10 11 mph 1014.2mb 55f
3:00am 11 13 mph 1013.7mb 56f
2:00am 16 17 mph 1013.7mb 57f
1:00am 14 17 mph 1014mb 59f
12:00am 10 10 mph 1014.1mb 58f
Tue 06/27 11:00pm 2 3 mph 1013.6mb 59f
10:00pm  -  0 mph 1014.2mb 58f
9:00pm 21 22 mph 1012.7mb 62f
8:00pm 36 40 mph 1012.2mb 62f
7:00pm 22 23 mph 1012.5mb 62f
6:00pm 18 22 mph 1013.6mb 60f
5:00pm 10 14 mph 1013.4mb 59f
4:00pm 9 10 mph 1013.1mb 63f
3:00pm 14 15 mph 1013.5mb 65f
2:00pm 14 14 mph 1013.9mb 65f
1:00pm 6 6 mph 1014.5mb 65f
12:00pm 8 9 mph 1015.4mb 64f
11:00am 8 9 mph 1015.8mb 62f
10:00am 2 3 mph 1015.9mb 61f
9:00am 7 7 mph 1015.6mb 62f
8:00am 7 8 mph 1015.5mb 61f
7:00am 5 5 mph 1015.4mb 61f
6:00am 5 5 mph 1015.6mb 59f
5:00am 10 10 mph 1015.7mb 59f
4:00am 11 11 mph 1015.2mb 60f
3:00am 9 9 mph 1014.9mb 61f
2:00am 9 9 mph 1014.9mb 62f
1:00am 5 6 mph 1014.6mb 64f
12:00am 15 16 mph 1015.1mb 64f
Mon 06/26 11:00pm 14 15 mph 1014.8mb 65f
10:00pm 9 10 mph 1014.6mb 69f
9:00pm 21 22 mph 1014.3mb 64f
8:00pm 17 18 mph 1014.1mb 65f
7:00pm 15 17 mph 1013.8mb 67f
6:00pm 14 14 mph 1013.4mb 71f
5:00pm 11 13 mph 1013mb 72f
4:00pm 16 17 mph 1013.2mb 71f
3:00pm 9 10 mph 1013.6mb 70f
2:00pm 5 7 mph 1013.9mb 67f
1:00pm 6 8 mph 1014.3mb 66f
12:00pm 8 9 mph 1014.4mb 66f
11:00am 9 10 mph 1014.4mb 66f
10:00am 8 9 mph 1014.1mb 64f
9:00am 13 14 mph 1014.1mb 64f
8:00am 14 16 mph 1013.9mb 63f
7:00am 17 18 mph 1013.1mb 60f
6:00am 17 17 mph 1012.6mb 60f
5:00am 18 18 mph 1012.5mb 62f
4:00am 18 18 mph 1012.2mb 64f
3:00am 16 17 mph 1011.9mb 63f
2:00am 20 21 mph 1012mb 64f
1:00am 24 24 mph 1012.2mb 64f
12:00am 11 11 mph 1011.8mb 68f
Sun 06/25 11:00pm 15 15 mph 1012.6mb 65f
10:00pm 18 21 mph 1012.2mb 72f
9:00pm 22 23 mph 1011.2mb 68f
8:00pm 21 23 mph 1011mb 69f
7:00pm 22 23 mph 1010.7mb 70f
6:00pm 18 18 mph 1010.5mb 73f
5:00pm 21 23 mph 1010.7mb 71f
4:00pm 14 15 mph 1011mb 73f
3:00pm 16 16 mph 1011.4mb 73f
2:00pm 13 13 mph 1011.9mb 69f
1:00pm 10 11 mph 1012.3mb 72f
12:00pm 7 9 mph 1012.6mb 71f
11:00am 6 6 mph 1013mb 70f
10:00am 8 8 mph 1013.1mb 70f
9:00am 11 11 mph 1013mb 68f
8:00am 11 11 mph 1012.9mb 66f
7:00am 13 13 mph 1012.2mb 65f
6:00am 11 11 mph 1011.7mb 66f
5:00am 15 15 mph 1010.8mb 68f
4:00am 15 16 mph 1010.5mb 70f
3:00am 17 17 mph 1010.2mb 71f
2:00am 18 18 mph 1010.1mb 71f